Time;durP1;ratioP1;P1;durP2;ratioP2;P2;SDS_P1;SDS_P2;PMS_P1;PMS_P2;Temp;Humidity;BMP_temperature;BMP_pressure;BME280_temperature;BME280_humidity;BME280_pressure;Samples;Min_cycle;Max_cycle;Signal;HPM_P1;HPM_P2
2024/03/20 00:00:17;;;;;;;10.35;4.00;;;;;;;11.88;79.46;100157.59;4961933;28;20047;-81
2024/03/20 00:02:43;;;;;;;11.02;4.18;;;;;;;11.88;79.50;100158.47;4960842;28;20071;-82
2024/03/20 00:05:09;;;;;;;10.02;5.97;;;;;;;11.89;79.41;100164.53;4955643;28;20904;-81
2024/03/20 00:07:35;;;;;;;10.45;4.05;;;;;;;11.88;79.25;100168.84;4950882;28;20068;-82
2024/03/20 00:10:00;;;;;;;10.93;4.68;;;;;;;11.89;78.81;100169.72;4959444;29;20055;-82
2024/03/20 00:12:26;;;;;;;11.80;5.15;;;;;;;11.89;79.60;100172.31;4959688;28;20082;-82
2024/03/20 00:14:52;;;;;;;10.05;4.70;;;;;;;11.90;78.98;100176.63;4957436;28;20051;-81
2024/03/20 00:17:18;;;;;;;10.48;4.25;;;;;;;11.88;79.75;100180.94;4972934;28;20046;-82
2024/03/20 00:19:44;;;;;;;10.82;4.75;;;;;;;11.87;79.15;100181.84;4964623;28;20145;-83
2024/03/20 00:22:10;;;;;;;12.57;6.22;;;;;;;11.85;79.42;100183.59;4976986;28;20759;-86
2024/03/20 00:24:39;;;;;;;9.43;3.75;;;;;;;11.81;80.26;100191.38;4957757;28;20047;-82
2024/03/20 00:27:04;;;;;;;11.55;5.05;;;;;;;11.85;80.42;100191.38;4958242;28;20066;-82
2024/03/20 00:29:30;;;;;;;9.50;5.18;;;;;;;11.82;80.15;100169.75;4966162;28;20427;-82
2024/03/20 00:31:56;;;;;;;10.07;4.88;;;;;;;11.80;80.34;100166.31;4959247;28;20135;-82
2024/03/20 00:34:23;;;;;;;10.40;4.47;;;;;;;11.82;80.64;100169.75;4955056;28;20062;-82
2024/03/20 00:36:49;;;;;;;10.93;4.55;;;;;;;11.82;80.06;100174.06;4959111;28;20504;-83
2024/03/20 00:39:15;;;;;;;8.68;3.65;;;;;;;11.86;80.76;100169.72;4955225;28;20071;-83
2024/03/20 00:41:41;;;;;;;10.75;4.80;;;;;;;11.83;79.92;100168.88;4957162;28;20728;-81
2024/03/20 00:44:07;;;;;;;11.00;4.32;;;;;;;11.83;80.47;100163.69;4959551;28;20138;-82
2024/03/20 00:46:33;;;;;;;10.77;4.53;;;;;;;11.86;80.52;100160.22;4960537;28;20685;-83
2024/03/20 00:48:59;;;;;;;9.85;7.00;;;;;;;11.84;80.54;100143.78;4969018;28;20587;-82
2024/03/20 00:51:25;;;;;;;10.02;3.88;;;;;;;11.83;80.38;100150.69;4968329;28;20074;-84
2024/03/20 00:53:50;;;;;;;11.90;3.92;;;;;;;11.86;80.21;100143.78;4957342;28;20143;-81
2024/03/20 00:56:17;;;;;;;8.68;3.35;;;;;;;11.85;80.64;100147.25;4958321;28;20047;-82
2024/03/20 00:58:43;;;;;;;9.48;3.85;;;;;;;11.83;80.30;100142.91;4969237;28;20060;-82
2024/03/20 01:01:09;;;;;;;8.32;3.55;;;;;;;11.81;80.00;100144.69;4954931;29;20146;-82
2024/03/20 01:03:35;;;;;;;8.25;3.42;;;;;;;11.83;80.53;100150.69;4957430;28;20039;-82
2024/03/20 01:06:02;;;;;;;8.60;3.65;;;;;;;11.83;79.97;100150.69;4956377;28;20051;-82
2024/03/20 01:08:29;;;;;;;7.55;3.75;;;;;;;11.84;79.83;100151.56;4950104;28;20099;-81
2024/03/20 01:10:56;;;;;;;7.65;3.63;;;;;;;11.87;80.31;100148.09;4954573;28;20043;-83
2024/03/20 01:13:22;;;;;;;8.40;3.95;;;;;;;11.87;79.86;100150.69;4958826;28;20048;-82
2024/03/20 01:19:18;;;;;;;7.78;2.88;;;;;;;11.82;80.52;100143.78;4953852;28;20106;-83
2024/03/20 01:21:46;;;;;;;8.15;3.10;;;;;;;11.84;80.38;100146.38;4956365;28;20043;-82
2024/03/20 01:24:12;;;;;;;7.30;3.10;;;;;;;11.85;80.26;100152.44;4958690;28;20055;-81
2024/03/20 01:26:39;;;;;;;8.85;3.20;;;;;;;11.82;79.47;100151.59;4956413;28;20090;-81
2024/03/20 01:29:06;;;;;;;6.97;3.03;;;;;;;11.81;80.84;100144.69;4968675;28;20046;-81
2024/03/20 01:31:35;;;;;;;7.55;3.03;;;;;;;11.80;80.65;100135.19;4949594;28;20051;-82
2024/03/20 01:34:02;;;;;;;6.38;2.53;;;;;;;11.80;80.13;100132.59;4957064;29;20078;-81
2024/03/20 01:36:28;;;;;;;6.70;2.65;;;;;;;11.81;80.56;100131.69;4960531;28;20058;-82
2024/03/20 01:38:55;;;;;;;6.90;3.05;;;;;;;11.81;80.57;100131.69;4965089;28;20476;-81
2024/03/20 01:41:21;;;;;;;6.88;2.72;;;;;;;11.80;80.59;100124.78;4954793;28;20644;-81
2024/03/20 01:43:55;;;;;;;6.65;2.58;;;;;;;11.76;81.17;100128.25;4956691;28;20047;-82
2024/03/20 01:46:34;;;;;;;6.20;2.47;;;;;;;11.75;81.10;100120.50;4948833;29;20106;-82
2024/03/20 01:49:03;;;;;;;5.22;1.92;;;;;;;11.78;81.11;100131.72;4954797;29;20043;-82
2024/03/20 01:51:31;;;;;;;4.60;2.30;;;;;;;11.77;80.63;100122.22;4960535;28;20051;-82
2024/03/20 01:54:02;;;;;;;5.75;2.00;;;;;;;11.74;81.34;100109.25;4954814;28;20055;-81
2024/03/20 01:56:29;;;;;;;4.43;1.83;;;;;;;11.73;81.54;100107.53;4954839;28;20054;-81
2024/03/20 01:58:55;;;;;;;4.35;2.08;;;;;;;11.74;80.86;100104.06;4955421;28;20413;-81
2024/03/20 02:01:21;;;;;;;5.35;2.72;;;;;;;11.77;80.47;100098.88;4955041;29;20055;-81
2024/03/20 02:03:47;;;;;;;4.55;2.28;;;;;;;11.78;80.79;100107.50;4958005;28;20519;-81
2024/03/20 02:06:27;;;;;;;6.25;2.08;;;;;;;11.77;80.60;100103.19;4954459;28;20039;-81
2024/03/20 02:08:55;;;;;;;3.83;1.25;;;;;;;11.76;81.05;100107.50;4954941;28;20055;-81
2024/03/20 02:11:24;;;;;;;4.25;1.80;;;;;;;11.79;80.83;100106.63;4955270;28;20043;-81
2024/03/20 02:13:51;;;;;;;4.32;2.22;;;;;;;11.78;81.42;100103.16;4955045;28;20106;-83
2024/03/20 02:16:18;;;;;;;4.63;1.65;;;;;;;11.75;81.57;100105.78;4971248;28;20062;-81
2024/03/20 02:18:45;;;;;;;3.72;1.58;;;;;;;11.74;81.03;100098.88;4954029;28;20082;-81
2024/03/20 02:21:13;;;;;;;2.92;1.60;;;;;;;11.75;81.45;100100.59;4946084;28;20055;-82
2024/03/20 02:23:39;;;;;;;4.40;1.75;;;;;;;11.76;80.70;100107.50;4973926;28;20035;-81
2024/03/20 02:26:06;;;;;;;4.18;1.77;;;;;;;11.75;82.04;100094.56;4953114;28;20050;-82
2024/03/20 02:28:34;;;;;;;3.00;1.92;;;;;;;11.76;81.84;100097.13;4954345;28;20078;-82
2024/03/20 02:31:02;;;;;;;3.65;1.48;;;;;;;11.74;81.76;100098.00;4970423;28;20054;-81
2024/03/20 02:33:28;;;;;;;3.25;1.38;;;;;;;11.75;81.39;100095.41;4954670;28;20051;-83
2024/03/20 02:35:54;;;;;;;3.00;1.42;;;;;;;11.75;82.25;100100.59;4967383;28;20121;-82
2024/03/20 02:38:30;;;;;;;3.33;1.85;;;;;;;11.77;81.96;100101.47;4953994;28;20424;-81
2024/03/20 02:40:56;;;;;;;3.47;1.35;;;;;;;11.73;82.08;100097.16;4954337;28;20094;-81
2024/03/20 02:43:23;;;;;;;2.92;1.00;;;;;;;11.77;81.15;100093.66;4959651;28;20058;-81
2024/03/20 02:45:49;;;;;;;2.92;1.48;;;;;;;11.77;81.38;100093.66;4950755;28;20493;-81
2024/03/20 02:48:15;;;;;;;2.63;1.02;;;;;;;11.78;82.02;100100.56;4949811;28;20035;-81
2024/03/20 02:50:41;;;;;;;3.88;1.40;;;;;;;11.77;82.34;100098.88;4950689;28;20055;-81
2024/03/20 02:53:07;;;;;;;1.85;1.02;;;;;;;11.78;82.13;100100.56;4958406;28;20059;-81
2024/03/20 02:55:35;;;;;;;2.63;0.90;;;;;;;11.80;81.82;100093.66;4956635;28;20059;-84
2024/03/20 02:58:02;;;;;;;1.98;0.77;;;;;;;11.76;82.32;100091.94;4960618;28;20059;-83
2024/03/20 03:00:29;;;;;;;3.05;2.35;;;;;;;11.79;81.65;100091.91;4950214;29;20452;-81
2024/03/20 03:02:55;;;;;;;2.88;1.40;;;;;;;11.82;81.95;100098.81;4954340;28;20054;-83
2024/03/20 03:05:22;;;;;;;2.65;1.80;;;;;;;11.81;82.10;100099.69;4957367;28;20047;-82
2024/03/20 03:07:49;;;;;;;3.10;1.08;;;;;;;11.81;82.13;100099.69;4957972;28;20043;-81
2024/03/20 03:10:15;;;;;;;3.53;1.10;;;;;;;11.78;81.96;100085.00;4956119;28;20077;-82
2024/03/20 03:12:42;;;;;;;3.20;1.17;;;;;;;11.82;82.60;100091.91;4964127;28;20051;-82
2024/03/20 03:15:09;;;;;;;3.10;1.23;;;;;;;11.84;82.16;100091.88;4955681;28;20120;-83
2024/03/20 03:17:37;;;;;;;2.72;1.33;;;;;;;11.83;82.28;100091.00;4958111;28;20097;-82
2024/03/20 03:20:05;;;;;;;2.47;1.13;;;;;;;11.83;82.14;100088.41;4972860;28;20050;-82
2024/03/20 03:22:31;;;;;;;2.90;2.58;;;;;;;11.82;81.96;100086.72;4958443;28;20754;-82
2024/03/20 03:24:58;;;;;;;2.95;1.73;;;;;;;11.84;82.46;100081.50;4963136;28;20388;-82
2024/03/20 03:27:24;;;;;;;2.70;1.15;;;;;;;11.83;81.60;100083.22;4964914;28;20058;-81
2024/03/20 03:29:50;;;;;;;3.03;2.42;;;;;;;11.80;82.27;100087.59;4944795;29;20424;-82
2024/03/20 03:32:16;;;;;;;3.42;1.83;;;;;;;11.80;82.45;100088.47;4965091;28;20419;-82
2024/03/20 03:34:41;;;;;;;2.10;1.08;;;;;;;11.82;82.59;100091.91;4956343;28;20058;-82
2024/03/20 03:37:08;;;;;;;1.90;0.98;;;;;;;11.78;82.51;100085.00;4966709;28;20046;-81
2024/03/20 03:39:33;;;;;;;1.67;0.80;;;;;;;11.82;82.77;100086.72;4971623;28;20141;-83
2024/03/20 03:41:59;;;;;;;1.63;1.02;;;;;;;11.85;82.48;100095.34;4965666;28;20106;-81
2024/03/20 03:44:25;;;;;;;2.78;1.00;;;;;;;11.82;82.93;100097.09;4957518;28;20056;-81
2024/03/20 03:46:51;;;;;;;1.55;0.70;;;;;;;11.83;82.46;100104.00;4956204;28;20043;-80
2024/03/20 03:49:17;;;;;;;1.73;0.80;;;;;;;11.86;83.34;100099.66;4946151;29;20706;-80
2024/03/20 03:51:43;;;;;;;2.08;0.80;;;;;;;11.82;82.38;100094.50;4953308;28;20094;-81
2024/03/20 03:54:08;;;;;;;1.77;0.73;;;;;;;11.82;82.51;100097.09;4956067;28;20058;-81
2024/03/20 03:56:35;;;;;;;3.17;1.40;;;;;;;11.90;81.90;100103.97;4956429;29;20110;-80
2024/03/20 03:59:01;;;;;;;1.50;0.80;;;;;;;11.86;82.71;100097.06;4962773;28;20632;-83
2024/03/20 04:01:27;;;;;;;1.55;0.98;;;;;;;11.90;82.48;100103.97;4951434;28;20593;-80
2024/03/20 04:03:52;;;;;;;2.33;0.82;;;;;;;11.92;82.31;100102.22;4957122;28;20055;-82
2024/03/20 04:06:18;;;;;;;2.55;0.93;;;;;;;11.91;82.32;100096.16;4953844;28;20121;-78
2024/03/20 04:08:44;;;;;;;1.30;0.93;;;;;;;11.91;82.73;100100.47;4956215;28;20039;-83
2024/03/20 04:11:10;;;;;;;2.90;1.35;;;;;;;11.91;82.57;100105.69;4955813;28;20039;-79
2024/03/20 04:13:36;;;;;;;1.10;0.60;;;;;;;11.89;83.13;100108.28;4956686;28;20104;-80
2024/03/20 04:16:02;;;;;;;0.90;0.70;;;;;;;11.86;83.33;100102.25;4953439;28;20112;-81
2024/03/20 04:18:27;;;;;;;1.63;1.00;;;;;;;11.89;82.49;100110.03;4952770;28;20051;-81
2024/03/20 04:20:53;;;;;;;1.92;0.88;;;;;;;11.87;82.81;100111.75;4954844;28;20078;-80
2024/03/20 04:23:19;;;;;;;3.33;1.13;;;;;;;11.89;83.01;100113.47;4958509;28;20039;-80
2024/03/20 04:25:44;;;;;;;1.88;0.95;;;;;;;11.88;83.32;100110.88;4958359;28;20051;-81
2024/03/20 04:28:10;;;;;;;1.33;0.88;;;;;;;11.88;82.52;100110.88;4956257;28;20063;-80
2024/03/20 04:30:39;;;;;;;1.17;0.73;;;;;;;11.87;83.27;100109.16;4955966;28;20039;-80
2024/03/20 04:33:06;;;;;;;2.25;1.23;;;;;;;11.87;83.24;100104.84;4958923;28;20039;-80
2024/03/20 04:35:33;;;;;;;2.63;1.00;;;;;;;11.83;82.93;100106.59;4960746;28;20042;-80
2024/03/20 04:37:59;;;;;;;3.70;1.10;;;;;;;11.88;82.98;100118.66;4963445;28;20050;-80
2024/03/20 04:40:25;;;;;;;1.50;0.85;;;;;;;11.89;82.30;100115.22;4959344;28;20098;-79
2024/03/20 04:42:51;;;;;;;2.75;0.80;;;;;;;11.89;82.63;100130.78;4971772;28;20050;-81
2024/03/20 04:45:16;;;;;;;2.08;1.30;;;;;;;11.86;83.72;100117.84;4968197;28;20046;-79
2024/03/20 04:47:42;;;;;;;2.58;1.08;;;;;;;11.89;83.01;100125.59;4955351;28;20094;-79
2024/03/20 04:50:11;;;;;;;1.67;1.13;;;;;;;11.86;83.09;100120.44;4961021;28;20051;-79
2024/03/20 04:52:38;;;;;;;2.75;2.20;;;;;;;11.90;82.80;100130.78;4961130;28;20078;-78
2024/03/20 04:55:05;;;;;;;1.25;0.60;;;;;;;11.89;83.03;100125.59;4965885;28;20070;-79
2024/03/20 04:57:31;;;;;;;2.25;1.05;;;;;;;11.90;82.23;100124.72;4959639;28;20120;-79
2024/03/20 04:59:57;;;;;;;1.35;1.00;;;;;;;11.92;82.87;100123.00;4955777;28;20055;-79
2024/03/20 05:02:23;;;;;;;2.55;1.35;;;;;;;11.91;83.22;100129.03;4959739;28;20059;-79
2024/03/20 05:04:48;;;;;;;1.80;0.60;;;;;;;11.87;82.88;100130.81;4955816;28;20047;-79
2024/03/20 05:07:14;;;;;;;0.70;0.52;;;;;;;11.83;82.83;100137.72;4956082;29;20063;-79
2024/03/20 05:09:40;;;;;;;2.58;0.70;;;;;;;11.88;83.17;100136.84;4959568;28;20587;-79
2024/03/20 05:12:06;;;;;;;1.38;0.95;;;;;;;11.90;82.65;100145.47;4954595;28;20397;-79
2024/03/20 05:14:32;;;;;;;1.63;0.70;;;;;;;11.90;82.93;100140.28;4958616;28;20035;-79
2024/03/20 05:17:00;;;;;;;1.38;0.88;;;;;;;11.89;82.25;100142.00;4958966;28;20125;-79
2024/03/20 05:19:27;;;;;;;2.17;1.13;;;;;;;11.89;82.96;100143.78;4966114;28;20051;-80
2024/03/20 05:21:53;;;;;;;2.38;0.90;;;;;;;11.89;83.06;100139.41;4965854;28;20063;-79
2024/03/20 05:24:19;;;;;;;1.63;0.75;;;;;;;11.89;82.29;100142.00;4964268;28;20039;-81
2024/03/20 05:26:45;;;;;;;1.73;0.70;;;;;;;11.87;83.33;100141.19;4959017;28;20050;-81
2024/03/20 05:29:12;;;;;;;2.28;1.00;;;;;;;11.87;83.38;100140.31;4955687;28;20058;-79
2024/03/20 05:31:38;;;;;;;3.53;0.88;;;;;;;11.88;82.36;100137.72;4953878;28;20059;-78
2024/03/20 05:34:05;;;;;;;2.60;1.40;;;;;;;11.88;83.19;100134.25;4950920;28;20043;-82
2024/03/20 05:36:31;;;;;;;2.65;0.98;;;;;;;11.90;83.49;100145.47;4952990;28;20047;-80
2024/03/20 05:38:56;;;;;;;2.40;1.17;;;;;;;11.89;82.59;100148.97;4967727;28;20586;-79
2024/03/20 05:41:22;;;;;;;2.70;1.88;;;;;;;11.88;82.96;100149.81;4961046;28;20042;-81
2024/03/20 05:43:48;;;;;;;2.53;1.25;;;;;;;11.86;82.82;100151.56;4954882;28;20087;-80
2024/03/20 05:46:14;;;;;;;5.15;0.90;;;;;;;11.87;82.42;100150.69;4952596;28;20065;-79
2024/03/20 05:48:42;;;;;;;2.10;1.20;;;;;;;11.87;82.61;100161.94;4949590;28;20560;-79
2024/03/20 05:51:08;;;;;;;1.95;0.90;;;;;;;11.90;82.69;100161.06;4956656;28;20055;-79
2024/03/20 05:53:33;;;;;;;2.92;1.27;;;;;;;11.91;82.81;100152.38;4951199;28;20505;-83
2024/03/20 05:55:59;;;;;;;2.25;1.20;;;;;;;11.91;83.05;100162.78;4954517;28;20407;-79
2024/03/20 05:58:25;;;;;;;2.65;0.73;;;;;;;11.89;83.00;100162.78;4955978;28;20051;-80
2024/03/20 06:00:52;;;;;;;3.30;1.15;;;;;;;11.91;82.76;100173.16;4953573;28;20477;-79
2024/03/20 06:03:18;;;;;;;2.35;0.82;;;;;;;11.91;82.82;100173.16;4963366;28;20098;-79
2024/03/20 06:05:47;;;;;;;5.38;0.82;;;;;;;11.93;82.39;100171.44;4953681;28;20047;-82
2024/03/20 06:08:13;;;;;;;3.85;0.95;;;;;;;11.92;82.49;100174.91;4951414;28;20042;-80
2024/03/20 06:10:39;;;;;;;1.40;0.80;;;;;;;11.90;83.03;100171.44;4968972;28;20058;-79
2024/03/20 06:13:04;;;;;;;1.95;0.88;;;;;;;11.92;82.81;100174.91;4957767;28;20048;-80
2024/03/20 06:15:30;;;;;;;1.83;0.80;;;;;;;11.91;82.29;100178.34;4959339;28;20047;-79
2024/03/20 06:17:56;;;;;;;4.35;0.90;;;;;;;11.93;82.46;100176.63;4970671;28;20043;-79
2024/03/20 06:20:22;;;;;;;2.03;1.17;;;;;;;11.93;81.94;100181.81;4962771;28;20062;-80
2024/03/20 06:22:47;;;;;;;6.00;0.98;;;;;;;11.94;81.60;100184.41;4958737;28;20043;-80
2024/03/20 06:25:13;;;;;;;3.03;1.35;;;;;;;11.95;82.77;100185.25;4955382;28;20062;-80
2024/03/20 06:27:39;;;;;;;2.60;1.05;;;;;;;11.96;81.93;100197.38;4955089;28;20140;-80
2024/03/20 06:30:11;;;;;;;4.35;1.33;;;;;;;11.98;82.12;100195.59;4953658;28;20051;-80
2024/03/20 06:32:38;;;;;;;1.67;0.85;;;;;;;11.93;81.59;100192.19;4955461;28;20054;-81
2024/03/20 06:35:05;;;;;;;4.35;1.13;;;;;;;11.94;82.01;100199.09;4953550;28;20127;-83
2024/03/20 06:37:32;;;;;;;3.58;0.73;;;;;;;11.94;82.09;100201.69;4951618;28;20047;-80
2024/03/20 06:39:58;;;;;;;4.22;1.38;;;;;;;11.96;82.07;100202.56;4950423;28;20078;-81
2024/03/20 06:42:24;;;;;;;3.47;1.48;;;;;;;11.97;81.90;100204.28;4952403;28;20051;-81
2024/03/20 06:44:50;;;;;;;1.70;0.80;;;;;;;11.94;81.54;100210.34;4954230;28;20058;-80
2024/03/20 06:47:17;;;;;;;2.90;1.17;;;;;;;11.96;81.44;100210.34;4954931;28;20079;-80
2024/03/20 06:49:44;;;;;;;4.57;1.13;;;;;;;11.97;81.89;100212.06;4958562;28;20587;-80
2024/03/20 06:52:14;;;;;;;5.72;1.02;;;;;;;11.99;82.03;100219.84;4954080;29;20059;-79
2024/03/20 06:54:44;;;;;;;3.05;1.40;;;;;;;11.99;81.71;100212.91;4954922;28;20052;-79
2024/03/20 06:57:11;;;;;;;4.22;1.67;;;;;;;12.00;82.03;100225.03;4969022;28;20060;-80
2024/03/20 06:59:37;;;;;;;3.17;1.20;;;;;;;12.00;81.94;100226.75;4959935;28;20039;-81
2024/03/20 07:02:03;;;;;;;3.10;0.98;;;;;;;12.00;81.71;100231.94;4958490;28;20047;-81
2024/03/20 07:04:29;;;;;;;3.00;1.40;;;;;;;12.00;81.47;100234.53;4958126;28;20054;-80
2024/03/20 07:06:55;;;;;;;4.65;1.80;;;;;;;12.01;81.50;100231.94;4957287;28;20408;-81
2024/03/20 07:09:22;;;;;;;4.38;1.63;;;;;;;12.01;81.46;100231.94;4960223;28;20139;-79
2024/03/20 07:11:49;;;;;;;6.78;1.85;;;;;;;12.03;81.72;100237.97;4953557;28;20043;-80
2024/03/20 07:14:17;;;;;;;5.32;1.83;;;;;;;12.07;81.49;100242.34;4947424;28;20047;-80
2024/03/20 07:16:43;;;;;;;3.70;1.27;;;;;;;12.07;82.21;100244.94;4959861;28;20062;-79
2024/03/20 07:19:09;;;;;;;6.30;1.75;;;;;;;12.09;81.71;100244.88;4959487;28;20051;-80
2024/03/20 07:21:36;;;;;;;3.47;1.05;;;;;;;12.08;81.18;100244.06;4957671;28;20141;-80
2024/03/20 07:24:02;;;;;;;3.97;1.50;;;;;;;12.10;81.35;100240.56;4957376;28;20043;-80
2024/03/20 07:26:29;;;;;;;4.47;1.42;;;;;;;12.10;82.19;100240.56;4963229;28;20500;-80
2024/03/20 07:28:55;;;;;;;8.20;1.77;;;;;;;12.09;81.89;100250.09;4957683;28;20051;-80
2024/03/20 07:31:22;;;;;;;6.82;1.33;;;;;;;12.10;81.53;100248.38;4956010;28;20489;-81
2024/03/20 07:33:47;;;;;;;4.20;1.50;;;;;;;12.11;81.52;100253.53;4958014;28;20054;-83
2024/03/20 07:36:13;;;;;;;2.60;1.23;;;;;;;12.12;82.19;100249.22;4958733;28;20051;-81
2024/03/20 07:38:40;;;;;;;6.95;1.77;;;;;;;12.12;81.35;100255.25;4960607;28;20499;-81
2024/03/20 07:41:06;;;;;;;5.72;1.88;;;;;;;12.16;82.11;100261.31;4956972;28;20141;-80
2024/03/20 07:43:32;;;;;;;6.32;2.20;;;;;;;12.18;81.39;100259.56;4956960;28;20524;-80
2024/03/20 07:45:59;;;;;;;3.67;1.60;;;;;;;12.19;82.21;100264.75;4955877;29;20066;-80
2024/03/20 07:48:25;;;;;;;4.65;1.90;;;;;;;12.21;82.10;100267.34;4955554;28;20719;-80
2024/03/20 07:50:54;;;;;;;3.35;1.20;;;;;;;12.24;81.05;100262.13;4951568;28;20044;-80
2024/03/20 07:53:20;;;;;;;4.65;1.95;;;;;;;12.25;81.33;100263.84;4956161;28;20051;-80
2024/03/20 07:55:45;;;;;;;7.40;1.98;;;;;;;12.24;81.19;100264.72;4960145;28;20055;-80
2024/03/20 07:58:13;;;;;;;3.25;1.38;;;;;;;12.23;82.17;100265.59;4956581;29;20055;-80
2024/03/20 08:00:39;;;;;;;4.60;1.60;;;;;;;12.23;81.75;100280.31;4956170;28;20074;-80
2024/03/20 08:03:06;;;;;;;5.97;1.58;;;;;;;12.23;81.53;100276.00;4958054;28;20047;-80
2024/03/20 08:05:31;;;;;;;5.40;1.42;;;;;;;12.23;82.26;100278.59;4955253;28;20054;-81
2024/03/20 08:07:57;;;;;;;6.57;1.50;;;;;;;12.23;81.56;100280.31;4955283;28;20043;-80
2024/03/20 08:10:24;;;;;;;3.97;1.40;;;;;;;12.24;81.95;100285.50;4961689;28;20095;-80
2024/03/20 08:12:51;;;;;;;5.10;1.90;;;;;;;12.25;81.39;100292.41;4954192;28;20058;-79
2024/03/20 08:15:17;;;;;;;6.70;1.73;;;;;;;12.25;81.77;100295.00;4956034;28;20047;-81
2024/03/20 08:17:46;;;;;;;5.65;1.90;;;;;;;12.27;81.62;100295.88;4957462;28;20043;-81
2024/03/20 08:20:13;;;;;;;6.95;1.45;;;;;;;12.29;81.82;100307.09;4954660;28;20051;-81
2024/03/20 08:22:41;;;;;;;3.08;1.30;;;;;;;12.31;81.93;100302.78;4960758;28;20539;-80
2024/03/20 08:25:10;;;;;;;6.97;1.92;;;;;;;12.36;80.88;100304.47;4955850;29;20117;-80
2024/03/20 08:27:36;;;;;;;5.05;1.92;;;;;;;12.39;81.78;100304.47;4968720;28;20046;-80
2024/03/20 08:30:05;;;;;;;11.10;2.58;;;;;;;12.40;81.69;100307.03;4972110;28;20075;-81
2024/03/20 08:32:31;;;;;;;6.88;2.03;;;;;;;12.43;81.43;100311.38;4955092;28;20090;-80
2024/03/20 08:34:58;;;;;;;7.25;2.30;;;;;;;12.43;81.42;100307.03;4961679;28;20051;-81
2024/03/20 08:37:24;;;;;;;20.40;8.52;;;;;;;12.42;81.88;100304.44;4955992;29;20086;-80
2024/03/20 08:39:52;;;;;;;8.55;3.92;;;;;;;12.44;82.04;100313.09;4955202;28;20059;-80
2024/03/20 08:42:18;;;;;;;17.80;7.88;;;;;;;12.42;81.99;100320.00;4955360;28;20047;-82
2024/03/20 08:44:44;;;;;;;17.13;8.25;;;;;;;12.49;81.63;100316.50;4955509;28;20131;-80
2024/03/20 08:47:10;;;;;;;9.63;4.15;;;;;;;12.51;82.00;100314.78;4952319;28;20044;-81
2024/03/20 08:49:37;;;;;;;7.30;3.08;;;;;;;12.52;81.48;100321.69;4948438;28;20062;-80
2024/03/20 08:52:06;;;;;;;10.95;4.68;;;;;;;12.58;80.62;100320.78;4951631;29;20067;-85
2024/03/20 08:54:33;;;;;;;9.90;4.97;;;;;;;12.59;81.02;100320.78;4966060;28;20500;-81
2024/03/20 08:57:03;;;;;;;9.77;4.25;;;;;;;12.63;81.45;100316.41;4958362;28;20051;-81
2024/03/20 08:59:32;;;;;;;6.93;3.70;;;;;;;12.65;81.18;100316.41;4961449;28;20043;-80
2024/03/20 09:01:58;;;;;;;6.57;2.65;;;;;;;12.69;81.31;100318.09;4955610;28;20039;-81
2024/03/20 09:04:24;;;;;;;6.47;3.67;;;;;;;12.75;81.05;100317.19;4960420;28;21073;-81
2024/03/20 09:06:50;;;;;;;11.35;4.13;;;;;;;12.76;81.64;100313.75;4955860;28;20043;-80
2024/03/20 09:09:16;;;;;;;9.48;5.38;;;;;;;12.77;80.53;100316.31;4957246;28;20058;-81
2024/03/20 09:11:42;;;;;;;7.78;3.78;;;;;;;12.79;80.84;100314.56;4961349;28;20051;-83
2024/03/20 09:14:08;;;;;;;8.27;3.60;;;;;;;12.81;81.07;100314.56;4955006;28;20043;-81
2024/03/20 09:16:34;;;;;;;6.75;3.47;;;;;;;12.79;80.80;100314.56;4950671;28;20063;-81
2024/03/20 09:19:00;;;;;;;13.07;4.10;;;;;;;12.79;81.26;100309.38;4948527;28;20048;-81
2024/03/20 09:21:25;;;;;;;5.68;3.35;;;;;;;12.80;80.36;100315.44;4959102;28;20049;-81
2024/03/20 09:23:51;;;;;;;6.88;3.70;;;;;;;12.80;80.46;100316.28;4964242;28;20051;-81
2024/03/20 09:26:17;;;;;;;7.13;4.07;;;;;;;12.79;80.89;100308.50;4959346;28;20046;-82
2024/03/20 09:28:43;;;;;;;7.30;2.90;;;;;;;12.82;80.31;100314.56;4955720;28;20110;-81
2024/03/20 09:31:09;;;;;;;7.78;3.22;;;;;;;12.81;80.46;100317.16;4960501;28;20090;-81
2024/03/20 09:33:37;;;;;;;7.32;3.00;;;;;;;12.86;81.08;100330.97;4954727;28;20063;-81
2024/03/20 09:36:03;;;;;;;8.88;3.65;;;;;;;12.89;80.73;100324.88;4951064;29;20059;-83
2024/03/20 09:38:29;;;;;;;7.80;2.10;;;;;;;12.89;80.06;100330.97;4954912;28;20046;-81
2024/03/20 09:40:58;;;;;;;6.75;2.92;;;;;;;12.85;80.43;100330.13;4955227;28;20043;-81
2024/03/20 09:43:24;;;;;;;6.13;2.25;;;;;;;12.87;79.87;100327.50;4947797;29;20492;-81
2024/03/20 09:45:55;;;;;;;8.55;2.30;;;;;;;12.91;80.44;100333.56;4951356;28;20053;-81
2024/03/20 09:48:21;;;;;;;1.60;0.80;;;;;;;12.85;80.11;100339.66;4961299;28;20043;-81
2024/03/20 09:50:51;;;;;;;3.70;1.70;;;;;;;12.88;80.29;100336.16;4950849;28;20398;-79
2024/03/20 09:53:16;;;;;;;6.70;2.05;;;;;;;12.90;80.67;100332.69;4952730;29;20732;-81
2024/03/20 09:55:46;;;;;;;4.13;2.20;;;;;;;12.91;79.94;100334.44;4955162;29;20114;-81
2024/03/20 09:58:13;;;;;;;4.10;1.88;;;;;;;12.95;80.03;100330.06;4957179;28;20039;-81
2024/03/20 10:00:55;;;;;;;4.30;1.58;;;;;;;12.99;80.28;100331.75;4959044;28;20043;-82
2024/03/20 10:03:22;;;;;;;2.65;1.38;;;;;;;13.01;80.01;100330.00;4954931;28;20043;-82
2024/03/20 10:05:56;;;;;;;2.58;1.17;;;;;;;13.06;80.17;100328.22;4955403;28;20046;-81
2024/03/20 10:08:21;;;;;;;4.68;2.25;;;;;;;13.14;80.09;100329.91;4951543;28;20094;-80
2024/03/20 10:10:47;;;;;;;5.60;1.98;;;;;;;13.20;79.76;100325.50;4956666;28;20074;-81
2024/03/20 10:13:13;;;;;;;4.80;1.83;;;;;;;13.29;79.98;100334.97;4959564;28;20137;-82
2024/03/20 10:15:39;;;;;;;5.68;1.85;;;;;;;13.43;79.87;100333.94;4951319;28;20047;-81
2024/03/20 10:18:05;;;;;;;7.15;2.35;;;;;;;13.55;80.01;100328.69;4953014;28;20074;-80
2024/03/20 10:20:31;;;;;;;5.78;2.83;;;;;;;13.68;79.82;100333.75;4964146;28;20415;-80
2024/03/20 10:22:57;;;;;;;3.78;1.92;;;;;;;13.72;79.62;100322.41;4956765;28;20046;-81
2024/03/20 10:25:22;;;;;;;5.25;2.33;;;;;;;13.82;79.87;100325.78;4954843;29;20069;-81
2024/03/20 10:27:50;;;;;;;5.95;2.63;;;;;;;13.98;79.18;100324.69;4953514;28;20082;-81
2024/03/20 10:30:19;;;;;;;5.30;2.47;;;;;;;14.09;79.00;100311.53;4949784;29;20035;-81
2024/03/20 10:32:47;;;;;;;2.90;1.30;;;;;;;14.22;78.65;100316.59;4953121;28;20047;-80
2024/03/20 10:35:15;;;;;;;8.48;2.45;;;;;;;14.26;77.98;100333.91;4953591;28;20635;-81
2024/03/20 10:37:43;;;;;;;3.40;1.88;;;;;;;14.25;77.54;100329.56;4953593;28;20047;-81
2024/03/20 10:40:16;;;;;;;7.40;2.13;;;;;;;14.25;77.17;100319.13;4939547;29;20083;-81
2024/03/20 10:42:45;;;;;;;5.95;2.47;;;;;;;14.30;77.26;100325.16;4952112;28;20046;-80
2024/03/20 10:45:12;;;;;;;7.53;3.83;;;;;;;14.39;77.96;100332.84;4956756;28;20431;-80
2024/03/20 10:47:40;;;;;;;6.55;2.80;;;;;;;14.39;76.50;100324.19;4972946;28;20034;-80
2024/03/20 10:50:18;;;;;;;4.30;2.47;;;;;;;14.44;76.74;100329.31;4951698;28;20043;-80
2024/03/20 10:52:46;;;;;;;6.18;2.22;;;;;;;14.55;77.01;100324.81;4952225;28;20054;-80
2024/03/20 10:55:20;;;;;;;9.15;2.53;;;;;;;14.57;76.56;100323.06;4960818;28;20515;-79
2024/03/20 10:57:47;;;;;;;4.85;1.90;;;;;;;14.62;76.53;100325.56;4950875;28;20044;-81
2024/03/20 11:00:17;;;;;;;6.13;2.40;;;;;;;14.63;76.54;100320.34;4961768;28;20046;-81
2024/03/20 11:02:44;;;;;;;6.88;2.33;;;;;;;14.68;76.50;100324.63;4968508;28;20070;-80
2024/03/20 11:05:45;;;;;;;4.90;2.45;;;;;;;14.70;76.15;100318.53;4953247;28;20070;-81
2024/03/20 11:08:11;;;;;;;5.45;2.35;;;;;;;14.72;75.40;100321.94;4923519;29;20063;-81
2024/03/20 11:10:47;;;;;;;7.05;2.58;;;;;;;14.71;75.12;100329.78;4968032;28;20420;-81
2024/03/20 11:13:21;;;;;;;8.95;2.97;;;;;;;14.71;75.04;100321.97;4954016;29;20055;-81
2024/03/20 11:15:49;;;;;;;7.57;1.85;;;;;;;14.72;74.92;100327.16;4953610;28;20050;-81
2024/03/20 11:18:21;;;;;;;7.53;2.90;;;;;;;14.80;75.73;100324.47;4939399;29;20043;-80
2024/03/20 11:20:47;;;;;;;4.63;1.88;;;;;;;14.90;75.72;100331.25;4964608;28;20054;-82
2024/03/20 11:23:22;;;;;;;4.68;2.20;;;;;;;14.94;74.62;100326.84;4957828;28;20043;-83
2024/03/20 11:25:48;;;;;;;7.55;3.20;;;;;;;15.01;73.98;100332.81;4955608;28;20044;-81